^^
Meteo Knjazevac Station Historical Data
Daily Summary for April 13, 2021 Units:  English    Metric   Both
Daily Weekly Monthly Yearly Custom
  High: Low: Average:
Temperature: 60.2 °F 46.2 °F 50.5 °F
Dew Point: 50.8 °F 42.8 °F 45.5 °F
Humidity: 90% 71% 83%
Wind Speed: 5mph 0mph 1mph
Wind Gust: 9mph - -
Wind- - South
Pressure: 29.97 in 29.90 in -
Precipitation: 0.00 in    
Historical Graphs
 
 
Tabular Data for April 13, 2021
Time Temperature Dew Point Pressure Wind Wind Speed Wind Gust Humidity Rainfall Rate (Hourly) solar Conditions
00:00 55.8 °F 48 °F 29.97 in SSE 1 mph 5 mph 75% 0.00 in 0 W/m2
00:10 55.4 °F 47.6 °F 29.97 in SE 1 mph 5 mph 75% 0.00 in 0 W/m2
00:20 55.2 °F 47.8 °F 29.97 in Calm   3 mph 76% 0.00 in 0 W/m2
00:30 54.9 °F 47.8 °F 29.97 in NNW 1 mph 3 mph 77% 0.00 in 0 W/m2
00:40 54.5 °F 47.4 °F 29.97 in Calm   3 mph 77% 0.00 in 0 W/m2
00:50 54 °F 47.3 °F 29.97 in SSE 1 mph 3 mph 78% 0.00 in 0 W/m2
01:00 53.7 °F 47 °F 29.97 in Calm   3 mph 78% 0.00 in 0 W/m2
01:20 53.1 °F 46.7 °F 29.97 in Calm   4 mph 79% 0.00 in 0 W/m2
01:30 52.9 °F 46.9 °F 29.97 in Calm   2 mph 80% 0.00 in 0 W/m2
02:20 51.4 °F 45.8 °F 29.96 in Calm   4 mph 81% 0.00 in 0 W/m2
02:30 51.3 °F 46 °F 29.96 in Calm   1 mph 82% 0.00 in 0 W/m2
02:40 50.9 °F 45.6 °F 29.96 in Calm   2 mph 82% 0.00 in 0 W/m2
02:50 50.5 °F 45.6 °F 29.96 in West 2 mph 3 mph 83% 0.00 in 0 W/m2
03:00 50.4 °F 45.7 °F 29.95 in NNW 1 mph 3 mph 84% 0.00 in 0 W/m2
03:10 50.2 °F 45.5 °F 29.96 in Calm   3 mph 84% 0.00 in 0 W/m2
03:20 50 °F 45.4 °F 29.95 in Calm   2 mph 84% 0.00 in 0 W/m2
03:30 49.8 °F 45.2 °F 29.95 in Calm   2 mph 84% 0.00 in 0 W/m2
03:40 49.5 °F 44.8 °F 29.95 in WNW 2 mph 3 mph 84% 0.00 in 0 W/m2
03:50 49.3 °F 45 °F 29.95 in Calm   3 mph 85% 0.00 in 0 W/m2
04:00 49.1 °F 44.8 °F 29.95 in Calm   1 mph 85% 0.00 in 0 W/m2
04:10 48.6 °F 44.3 °F 29.95 in Calm   2 mph 85% 0.00 in 0 W/m2
04:20 48.3 °F 44 °F 29.95 in NW 1 mph 2 mph 85% 0.00 in 0 W/m2
04:30 47.7 °F 43.7 °F 29.95 in WNW 2 mph 4 mph 86% 0.00 in 0 W/m2
04:40 47.7 °F 43.7 °F 29.95 in Calm   4 mph 86% 0.00 in 0 W/m2
04:50 47.5 °F 43.5 °F 29.95 in Calm   2 mph 86% 0.00 in 0 W/m2
05:00 47.3 °F 43.3 °F 29.95 in Calm   2 mph 86% 0.00 in 0 W/m2
05:10 47.1 °F 43.1 °F 29.95 in Calm   2 mph 86% 0.00 in 3 W/m2
05:20 46.8 °F 42.8 °F 29.95 in WNW 1 mph 3 mph 86% 0.00 in 8 W/m2
05:30 46.6 °F 43.2 °F 29.95 in North 1 mph 3 mph 88% 0.00 in 16 W/m2
05:40 46.2 °F 42.9 °F 29.95 in WNW 1 mph 3 mph 88% 0.00 in 27 W/m2
05:50 46.4 °F 43.3 °F 29.94 in Calm   3 mph 89% 0.00 in 40 W/m2
06:00 46.5 °F 43.1 °F 29.94 in Calm   2 mph 88% 0.00 in 58 W/m2
06:10 46.2 °F 42.9 °F 29.94 in Calm   2 mph 88% 0.00 in 50 W/m2
06:20 46.2 °F 43.2 °F 29.94 in WNW 1 mph 3 mph 89% 0.00 in 68 W/m2
06:30 46.4 °F 43.3 °F 29.94 in West 1 mph 3 mph 89% 0.00 in 135 W/m2
06:40 46.7 °F 43.9 °F 29.93 in NW 2 mph 5 mph 90% 0.00 in 153 W/m2
06:50 46.9 °F 44.2 °F 29.93 in WNW 1 mph 3 mph 90% 0.00 in 175 W/m2
07:00 47.4 °F 44.6 °F 29.92 in Calm   2 mph 90% 0.00 in 194 W/m2
07:10 47.9 °F 45.2 °F 29.92 in WSW 1 mph 2 mph 90% 0.00 in 207 W/m2
07:20 48.4 °F 45.6 °F 29.92 in Calm   2 mph 90% 0.00 in 278 W/m2
07:30 49.2 °F 46.1 °F 29.92 in Calm   2 mph 89% 0.00 in 308 W/m2
07:40 49.7 °F 46.3 °F 29.92 in SSW 1 mph 3 mph 88% 0.00 in 327 W/m2
07:50 50.5 °F 46.2 °F 29.92 in NNE 2 mph 5 mph 85% 0.00 in 372 W/m2
08:00 51.7 °F 46.1 °F 29.92 in NNE 2 mph 6 mph 81% 0.00 in 408 W/m2
08:10 52.4 °F 46.5 °F 29.92 in NNE 2 mph 7 mph 80% 0.00 in 435 W/m2
08:20 53.4 °F 47.1 °F 29.91 in NNE 5 mph 8 mph 79% 0.00 in 458 W/m2
08:30 54.3 °F 47.5 °F 29.91 in North 5 mph 9 mph 78% 0.00 in 469 W/m2
08:40 55.1 °F 48.1 °F 29.91 in NNE 2 mph 7 mph 77% 0.00 in 522 W/m2
08:50 56.4 °F 48.6 °F 29.91 in NNE 3 mph 8 mph 75% 0.00 in 577 W/m2
09:00 58.4 °F 49.4 °F 29.91 in NNE 2 mph 8 mph 72% 0.00 in 595 W/m2
09:10 60.2 °F 50.8 °F 29.90 in NNE 5 mph 7 mph 71% 0.00 in 662 W/m2
Knjazevac, Serbia
Compliments of Weather Underground - 2 mb